createdAt,value
2018-06-16T00:01:32.047Z,18.98
2018-06-16T00:04:04.247Z,18.97
2018-06-16T00:09:14.600Z,18.96
2018-06-16T00:11:46.253Z,18.23
2018-06-16T00:14:17.862Z,18.94
2018-06-16T00:16:49.243Z,18.93
2018-06-16T00:19:21.130Z,18.93
2018-06-16T00:21:52.867Z,17.64
2018-06-16T00:24:24.080Z,18.92
2018-06-16T00:26:58.538Z,18.92
2018-06-16T00:29:29.832Z,18.91
2018-06-16T00:32:01.675Z,18.90
2018-06-16T00:34:34.555Z,18.91
2018-06-16T00:37:06.562Z,18.89
2018-06-16T00:39:38.631Z,18.88
2018-06-16T00:42:09.883Z,18.88
2018-06-16T00:44:41.044Z,18.88
2018-06-16T00:47:12.699Z,18.85
2018-06-16T00:49:44.452Z,18.83
2018-06-16T00:52:16.335Z,18.80
2018-06-16T00:54:48.725Z,18.79
2018-06-16T00:57:32.148Z,18.78
2018-06-16T01:00:04.058Z,18.78
2018-06-16T01:02:35.951Z,18.66
2018-06-16T01:05:07.848Z,18.77
2018-06-16T01:07:39.814Z,18.76
2018-06-16T01:10:12.368Z,18.78
2018-06-16T01:12:45.188Z,18.64
2018-06-16T01:15:17.308Z,18.77
2018-06-16T01:17:48.883Z,18.75
2018-06-16T01:20:21.238Z,18.74
2018-06-16T01:22:53.780Z,18.71
2018-06-16T01:25:26.859Z,18.68
2018-06-16T01:28:00.375Z,18.67
2018-06-16T01:30:32.157Z,18.67
2018-06-16T01:33:04.197Z,18.67
2018-06-16T01:35:36.043Z,18.66
2018-06-16T01:38:09.744Z,18.65
2018-06-16T01:40:41.753Z,18.66
2018-06-16T01:43:13.443Z,18.63
2018-06-16T01:45:45.239Z,18.63
2018-06-16T01:48:19.914Z,18.63
2018-06-16T01:50:53.227Z,18.63
2018-06-16T01:53:26.340Z,18.63
2018-06-16T01:55:57.767Z,18.61
2018-06-16T01:58:30.532Z,18.61
2018-06-16T02:01:02.552Z,18.61
2018-06-16T02:03:34.227Z,18.61
2018-06-16T02:06:06.583Z,18.60
2018-06-16T02:08:38.235Z,18.61
2018-06-16T02:11:10.915Z,17.90
2018-06-16T02:13:42.530Z,18.59
2018-06-16T02:16:13.971Z,18.59
2018-06-16T02:18:45.828Z,18.60
2018-06-16T02:21:18.530Z,18.60
2018-06-16T02:23:50.706Z,18.57
2018-06-16T02:26:24.295Z,18.54
2018-06-16T02:28:55.884Z,18.53
2018-06-16T02:31:28.624Z,18.51
2018-06-16T02:34:01.090Z,18.50
2018-06-16T02:36:33.173Z,18.48
2018-06-16T02:39:05.679Z,18.47
2018-06-16T02:41:37.625Z,18.47
2018-06-16T02:44:09.872Z,18.47
2018-06-16T02:46:42.256Z,18.48
2018-06-16T02:49:13.853Z,18.47
2018-06-16T02:51:45.688Z,18.48
2018-06-16T02:54:17.922Z,18.46
2018-06-16T02:56:50.113Z,18.44
2018-06-16T02:59:21.928Z,18.44
2018-06-16T03:01:55.718Z,18.42
2018-06-16T03:04:27.695Z,18.40
2018-06-16T03:07:00.279Z,17.12
2018-06-16T03:09:32.115Z,18.38
2018-06-16T03:12:04.313Z,18.40
2018-06-16T03:14:36.144Z,18.38
2018-06-16T03:17:07.868Z,18.40
2018-06-16T03:19:39.745Z,18.40
2018-06-16T03:22:11.627Z,18.39
2018-06-16T03:24:43.357Z,18.36
2018-06-16T03:27:15.835Z,18.34
2018-06-16T03:29:47.682Z,18.34
2018-06-16T03:32:19.202Z,18.33
2018-06-16T03:34:51.359Z,18.35
2018-06-16T03:37:23.624Z,18.37
2018-06-16T03:39:56.507Z,18.40
2018-06-16T03:42:28.127Z,18.38
2018-06-16T03:44:59.983Z,18.38
2018-06-16T03:47:32.177Z,18.40
2018-06-16T03:50:04.796Z,18.44
2018-06-16T03:52:37.603Z,18.50
2018-06-16T03:55:09.821Z,18.53
2018-06-16T03:57:42.080Z,18.53
2018-06-16T04:00:13.756Z,18.53
2018-06-16T04:02:45.616Z,18.58
2018-06-16T04:05:17.774Z,18.60
2018-06-16T04:07:53.128Z,18.64
2018-06-16T04:10:25.859Z,18.67
2018-06-16T04:12:57.935Z,18.62
2018-06-16T04:15:30.075Z,18.62
2018-06-16T04:18:01.870Z,18.60
2018-06-16T04:20:34.523Z,18.61
2018-06-16T04:23:06.853Z,18.61
2018-06-16T04:25:38.888Z,18.63
2018-06-16T04:28:11.003Z,18.69
2018-06-16T04:30:42.779Z,18.75
2018-06-16T04:33:14.669Z,18.82
2018-06-16T04:35:46.571Z,18.83
2018-06-16T04:38:18.232Z,18.87
2018-06-16T04:40:50.137Z,18.91
2018-06-16T04:43:22.083Z,18.97
2018-06-16T04:45:54.937Z,19.04
2018-06-16T04:48:26.624Z,19.16
2018-06-16T04:50:59.031Z,19.24
2018-06-16T04:53:30.798Z,19.34
2018-06-16T04:56:02.879Z,19.44
2018-06-16T04:58:36.282Z,19.50
2018-06-16T05:01:10.523Z,19.55
2018-06-16T05:03:42.698Z,19.64
2018-06-16T05:06:14.358Z,19.76
2018-06-16T05:08:46.042Z,19.86
2018-06-16T05:11:19.648Z,20.03
2018-06-16T05:13:51.701Z,20.10
2018-06-16T05:16:23.693Z,20.18
2018-06-16T05:18:55.870Z,20.29
2018-06-16T05:21:30.075Z,20.41
2018-06-16T05:24:04.515Z,20.55
2018-06-16T05:26:40.016Z,20.69
2018-06-16T05:29:13.606Z,20.76
2018-06-16T05:31:45.466Z,20.86
2018-06-16T05:34:17.116Z,21.01
2018-06-16T05:36:48.789Z,21.16
2018-06-16T05:39:22.918Z,21.35
2018-06-16T05:41:55.066Z,20.42
2018-06-16T05:44:26.720Z,21.64
2018-06-16T05:46:58.548Z,20.46
2018-06-16T05:49:30.854Z,21.69
2018-06-16T05:52:02.555Z,21.84
2018-06-16T05:54:34.860Z,21.94
2018-06-16T05:57:06.135Z,22.14
2018-06-16T05:59:38.109Z,22.26
2018-06-16T06:02:09.882Z,22.29
2018-06-16T06:04:41.081Z,22.23
2018-06-16T06:07:12.381Z,22.22
2018-06-16T06:09:43.936Z,22.28
2018-06-16T06:12:17.621Z,22.36
2018-06-16T06:14:51.276Z,22.37
2018-06-16T06:17:23.812Z,22.35
2018-06-16T06:19:56.197Z,22.51
2018-06-16T06:22:28.000Z,22.70
2018-06-16T06:25:00.372Z,22.82
2018-06-16T06:27:32.170Z,23.05
2018-06-16T06:30:03.746Z,23.19
2018-06-16T06:32:35.014Z,23.22
2018-06-16T06:35:07.611Z,23.23
2018-06-16T06:37:39.318Z,23.31
2018-06-16T06:40:13.473Z,23.47
2018-06-16T06:42:45.328Z,23.72
2018-06-16T06:45:16.679Z,23.91
2018-06-16T06:47:48.050Z,24.11
2018-06-16T06:50:19.792Z,24.29
2018-06-16T06:52:51.140Z,24.38
2018-06-16T06:55:22.917Z,24.50
2018-06-16T06:57:55.499Z,24.46
2018-06-16T07:00:27.839Z,24.47
2018-06-16T07:05:30.662Z,24.69
2018-06-16T07:08:03.249Z,24.97
2018-06-16T07:10:35.612Z,25.20
2018-06-16T07:13:13.785Z,25.40
2018-06-16T07:15:45.321Z,25.34
2018-06-16T07:18:16.968Z,25.27
2018-06-16T07:20:48.683Z,25.38
2018-06-16T07:23:20.776Z,25.56
2018-06-16T07:25:52.532Z,25.70
2018-06-16T07:28:24.812Z,25.60
2018-06-16T07:30:57.758Z,25.63
2018-06-16T07:33:30.773Z,25.71
2018-06-16T07:36:02.811Z,25.77
2018-06-16T07:38:35.819Z,25.63
2018-06-16T07:41:10.046Z,25.72
2018-06-16T07:43:44.790Z,25.66
2018-06-16T07:46:20.380Z,25.81
2018-06-16T07:48:52.475Z,25.82
2018-06-16T07:51:24.233Z,25.97
2018-06-16T07:53:55.973Z,26.07
2018-06-16T07:56:27.604Z,26.23
2018-06-16T07:58:59.304Z,26.32
2018-06-16T08:01:31.530Z,26.72
2018-06-16T08:04:03.485Z,26.80
2018-06-16T08:06:35.709Z,26.92
2018-06-16T08:09:11.049Z,25.97
2018-06-16T08:11:44.337Z,27.12
2018-06-16T08:14:15.900Z,27.27
2018-06-16T08:16:47.282Z,27.48
2018-06-16T08:19:18.891Z,27.32
2018-06-16T08:21:52.777Z,27.12
2018-06-16T08:24:24.622Z,27.26
2018-06-16T08:26:56.091Z,27.34
2018-06-16T08:29:28.971Z,27.25
2018-06-16T08:32:01.601Z,27.21
2018-06-16T08:34:33.075Z,27.16
2018-06-16T08:37:05.258Z,27.32
2018-06-16T08:39:37.213Z,27.33
2018-06-16T08:42:09.602Z,27.33
2018-06-16T08:44:41.523Z,27.65
2018-06-16T08:47:14.178Z,26.98
2018-06-16T08:49:46.620Z,27.97
2018-06-16T08:52:20.839Z,28.17
2018-06-16T08:54:52.339Z,27.97
2018-06-16T08:57:24.909Z,28.01
2018-06-16T08:59:57.619Z,28.06
2018-06-16T09:02:32.579Z,28.08
2018-06-16T09:05:04.632Z,28.37
2018-06-16T09:07:36.227Z,28.45
2018-06-16T09:10:08.368Z,28.48
2018-06-16T09:12:40.044Z,28.37
2018-06-16T09:15:11.218Z,28.11
2018-06-16T09:17:43.205Z,27.82
2018-06-16T09:20:14.694Z,28.31
2018-06-16T09:22:47.360Z,28.34
2018-06-16T09:25:20.630Z,28.56
2018-06-16T09:27:52.416Z,28.40
2018-06-16T09:30:24.564Z,28.52
2018-06-16T09:32:56.671Z,28.75
2018-06-16T09:35:28.445Z,28.80
2018-06-16T09:38:01.578Z,28.79
2018-06-16T09:40:34.792Z,28.92
2018-06-16T09:43:06.423Z,29.01
2018-06-16T09:45:37.675Z,29.14
2018-06-16T09:48:09.060Z,28.93
2018-06-16T09:50:40.675Z,29.13
2018-06-16T09:53:11.974Z,29.18
2018-06-16T09:55:44.615Z,29.07
2018-06-16T09:58:19.248Z,28.96
2018-06-16T10:00:50.628Z,28.71
2018-06-16T10:03:22.488Z,28.82
2018-06-16T10:05:54.274Z,28.86
2018-06-16T10:08:25.890Z,28.65
2018-06-16T10:10:57.242Z,28.75
2018-06-16T10:13:28.844Z,28.81
2018-06-16T10:16:01.655Z,28.88
2018-06-16T10:18:33.498Z,28.91
2018-06-16T10:21:06.220Z,29.08
2018-06-16T10:23:38.628Z,29.26
2018-06-16T10:26:10.901Z,28.91
2018-06-16T10:28:43.890Z,29.16
2018-06-16T10:31:15.527Z,28.97
2018-06-16T10:33:47.470Z,29.26
2018-06-16T10:36:19.297Z,29.32
2018-06-16T10:38:50.703Z,29.18
2018-06-16T10:41:22.583Z,29.52
2018-06-16T10:43:54.853Z,29.66
2018-06-16T10:46:30.187Z,29.54
2018-06-16T10:49:01.926Z,29.46
2018-06-16T10:51:33.845Z,29.65
2018-06-16T10:54:05.283Z,29.84
2018-06-16T10:56:36.733Z,29.57
2018-06-16T10:59:08.321Z,29.59
2018-06-16T11:01:40.215Z,29.65
2018-06-16T11:04:11.397Z,29.72
2018-06-16T11:06:43.040Z,29.65
2018-06-16T11:09:14.683Z,29.56
2018-06-16T11:11:46.145Z,29.50
2018-06-16T11:14:17.758Z,29.30
2018-06-16T11:16:50.313Z,29.56
2018-06-16T11:19:22.023Z,29.61
2018-06-16T11:21:53.411Z,29.54
2018-06-16T11:24:25.343Z,29.37
2018-06-16T11:26:56.946Z,29.31
2018-06-16T11:29:30.838Z,29.68
2018-06-16T11:32:03.152Z,29.89
2018-06-16T11:34:37.200Z,30.21
2018-06-16T11:37:08.746Z,30.30
2018-06-16T11:39:41.009Z,30.51
2018-06-16T11:42:12.499Z,30.60
2018-06-16T11:44:45.006Z,30.58
2018-06-16T11:47:17.619Z,30.65
2018-06-16T11:49:48.925Z,31.07
2018-06-16T11:52:21.276Z,31.19
2018-06-16T11:54:53.726Z,31.59
2018-06-16T11:57:26.144Z,31.45
2018-06-16T11:59:57.675Z,30.75
2018-06-16T12:02:29.579Z,30.03
2018-06-16T12:05:01.161Z,30.21
2018-06-16T12:07:32.704Z,29.92
2018-06-16T12:10:04.233Z,30.19
2018-06-16T12:12:36.793Z,30.31
2018-06-16T12:15:09.020Z,30.61
2018-06-16T12:17:40.409Z,30.42
2018-06-16T12:20:13.010Z,29.83
2018-06-16T12:22:44.380Z,29.22
2018-06-16T12:25:15.645Z,28.58
2018-06-16T12:27:47.326Z,30.24
2018-06-16T12:30:19.392Z,30.38
2018-06-16T12:32:52.058Z,30.78
2018-06-16T12:35:24.311Z,30.71
2018-06-16T12:37:56.306Z,30.55
2018-06-16T12:40:32.109Z,29.96
2018-06-16T12:43:09.599Z,30.38
2018-06-16T12:45:44.499Z,30.26
2018-06-16T12:48:21.008Z,30.09
2018-06-16T12:50:54.630Z,28.74
2018-06-16T12:53:26.026Z,29.85
2018-06-16T12:55:57.682Z,29.84
2018-06-16T12:58:29.370Z,29.65
2018-06-16T13:01:02.254Z,29.51
2018-06-16T13:03:34.195Z,29.63
2018-06-16T13:06:05.992Z,29.71
2018-06-16T13:08:37.236Z,29.62
2018-06-16T13:11:09.396Z,30.30
2018-06-16T13:13:40.948Z,30.81
2018-06-16T13:16:14.422Z,30.72
2018-06-16T13:18:45.925Z,30.53
2018-06-16T13:21:17.237Z,30.14
2018-06-16T13:23:49.591Z,30.08
2018-06-16T13:26:20.986Z,30.00
2018-06-16T13:28:54.765Z,29.89
2018-06-16T13:31:27.267Z,29.87
2018-06-16T13:33:59.315Z,29.95
2018-06-16T13:36:31.246Z,30.35
2018-06-16T13:39:03.914Z,30.86
2018-06-16T13:41:35.820Z,31.36
2018-06-16T13:44:10.297Z,31.85
2018-06-16T13:46:42.344Z,31.61
2018-06-16T13:49:15.729Z,32.01
2018-06-16T13:51:47.077Z,31.84
2018-06-16T13:54:18.759Z,31.56
2018-06-16T13:56:49.995Z,31.74
2018-06-16T13:59:21.411Z,31.27
2018-06-16T14:01:53.909Z,31.22
2018-06-16T14:04:25.393Z,30.83
2018-06-16T14:06:57.760Z,30.78
2018-06-16T14:09:29.972Z,30.58
2018-06-16T14:12:01.379Z,30.15
2018-06-16T14:14:35.312Z,29.87
2018-06-16T14:17:06.989Z,29.76
2018-06-16T14:19:39.678Z,29.73
2018-06-16T14:22:11.307Z,29.60
2018-06-16T14:24:42.748Z,29.56
2018-06-16T14:27:14.852Z,29.87
2018-06-16T14:29:46.136Z,29.96
2018-06-16T14:32:19.391Z,29.90
2018-06-16T14:34:51.450Z,29.78
2018-06-16T14:37:22.869Z,29.90
2018-06-16T14:39:55.041Z,29.93
2018-06-16T14:42:26.391Z,29.97
2018-06-16T14:44:59.582Z,30.03
2018-06-16T14:47:32.492Z,29.79
2018-06-16T14:50:04.302Z,29.54
2018-06-16T14:52:35.929Z,29.57
2018-06-16T14:55:08.504Z,29.64
2018-06-16T14:57:40.499Z,29.89
2018-06-16T15:00:13.638Z,30.04
2018-06-16T15:02:45.348Z,29.91
2018-06-16T15:05:16.818Z,29.54
2018-06-16T15:07:48.644Z,29.34
2018-06-16T15:10:20.112Z,29.08
2018-06-16T15:12:52.480Z,28.99
2018-06-16T15:15:25.497Z,28.98
2018-06-16T15:17:57.843Z,28.99
2018-06-16T15:20:29.207Z,28.93
2018-06-16T15:23:03.046Z,28.92
2018-06-16T15:25:35.695Z,28.77
2018-06-16T15:28:08.105Z,28.66
2018-06-16T15:30:39.951Z,28.43
2018-06-16T15:33:12.072Z,28.42
2018-06-16T15:35:43.852Z,28.47
2018-06-16T15:38:15.350Z,28.55
2018-06-16T15:40:47.390Z,28.55
2018-06-16T15:43:21.250Z,28.54
2018-06-16T15:45:52.795Z,28.83
2018-06-16T15:48:25.129Z,29.37
2018-06-16T15:50:58.992Z,29.53
2018-06-16T15:53:31.232Z,29.65
2018-06-16T15:56:03.188Z,29.53
2018-06-16T15:58:34.645Z,29.58
2018-06-16T16:01:08.810Z,29.79
2018-06-16T16:03:41.570Z,29.78
2018-06-16T16:06:13.568Z,29.87
2018-06-16T16:08:46.409Z,29.79
2018-06-16T16:11:17.827Z,29.66
2018-06-16T16:13:50.617Z,29.72
2018-06-16T16:16:23.189Z,29.76
2018-06-16T16:18:54.681Z,29.47
2018-06-16T16:21:26.747Z,29.38
2018-06-16T16:23:58.858Z,28.84
2018-06-16T16:26:30.359Z,28.43
2018-06-16T16:29:03.815Z,28.10
2018-06-16T16:31:36.616Z,28.07
2018-06-16T16:34:11.466Z,27.22
2018-06-16T16:36:43.142Z,28.43
2018-06-16T16:39:15.038Z,28.32
2018-06-16T16:41:46.877Z,28.15
2018-06-16T16:44:18.721Z,28.07
2018-06-16T16:46:51.583Z,27.89
2018-06-16T16:49:23.176Z,27.58
2018-06-16T16:51:54.657Z,27.56
2018-06-16T16:54:26.016Z,27.57
2018-06-16T16:56:57.879Z,27.49
2018-06-16T16:59:29.279Z,27.51
2018-06-16T17:02:04.700Z,27.66
2018-06-16T17:04:36.394Z,27.79
2018-06-16T17:07:07.920Z,27.86
2018-06-16T17:09:39.763Z,28.00
2018-06-16T17:12:11.639Z,27.99
2018-06-16T17:14:43.449Z,27.99
2018-06-16T17:17:15.335Z,28.11
2018-06-16T17:19:47.740Z,27.96
2018-06-16T17:22:19.053Z,27.92
2018-06-16T17:24:51.437Z,27.91
2018-06-16T17:27:23.578Z,27.74
2018-06-16T17:29:55.606Z,27.84
2018-06-16T17:32:27.667Z,28.00
2018-06-16T17:35:00.259Z,28.12
2018-06-16T17:37:32.812Z,28.24
2018-06-16T17:40:06.169Z,28.18
2018-06-16T17:42:37.860Z,28.03
2018-06-16T17:45:09.566Z,28.03
2018-06-16T17:47:41.688Z,27.97
2018-06-16T17:50:14.159Z,27.84
2018-06-16T17:52:46.234Z,27.53
2018-06-16T17:55:19.665Z,27.34
2018-06-16T17:57:51.179Z,27.29
2018-06-16T18:00:24.438Z,27.25
2018-06-16T18:02:55.890Z,27.20
2018-06-16T18:05:28.537Z,27.20
2018-06-16T18:08:01.249Z,27.13
2018-06-16T18:10:32.830Z,27.13
2018-06-16T18:13:04.716Z,27.07
2018-06-16T18:15:38.811Z,26.97
2018-06-16T18:18:14.493Z,26.92
2018-06-16T18:20:47.044Z,26.86
2018-06-16T18:23:20.351Z,26.67
2018-06-16T18:28:36.333Z,26.49
2018-06-16T18:31:08.386Z,26.38
2018-06-16T18:33:42.465Z,26.20
2018-06-16T18:36:14.377Z,26.02
2018-06-16T18:38:52.148Z,25.83
2018-06-16T18:41:25.783Z,25.62
2018-06-16T18:43:59.704Z,25.43
2018-06-16T18:46:31.253Z,25.28
2018-06-16T18:49:04.074Z,25.14
2018-06-16T18:51:38.954Z,25.02
2018-06-16T18:54:14.319Z,24.88
2018-06-16T18:56:48.840Z,24.75
2018-06-16T18:59:21.778Z,24.65
2018-06-16T19:01:55.576Z,24.54
2018-06-16T19:04:27.436Z,24.42
2018-06-16T19:06:58.944Z,24.34
2018-06-16T19:09:31.071Z,24.25
2018-06-16T19:12:04.976Z,24.15
2018-06-16T19:14:37.439Z,24.02
2018-06-16T19:17:10.256Z,23.87
2018-06-16T19:19:41.999Z,23.71
2018-06-16T19:22:14.121Z,23.57
2018-06-16T19:24:46.663Z,23.41
2018-06-16T19:27:21.527Z,23.23
2018-06-16T19:29:53.750Z,21.88
2018-06-16T19:32:25.985Z,22.87
2018-06-16T19:34:57.345Z,22.72
2018-06-16T19:37:30.231Z,22.61
2018-06-16T19:40:01.868Z,22.55
2018-06-16T19:42:35.735Z,22.45
2018-06-16T19:45:09.644Z,22.38
2018-06-16T19:47:41.690Z,20.96
2018-06-16T19:50:13.703Z,22.25
2018-06-16T19:52:45.552Z,22.20
2018-06-16T19:55:17.907Z,22.14
2018-06-16T19:57:50.033Z,22.08
2018-06-16T20:00:21.378Z,22.02
2018-06-16T20:02:53.109Z,21.95
2018-06-16T20:05:25.499Z,21.89
2018-06-16T20:07:59.095Z,21.90
2018-06-16T20:10:34.014Z,21.87
2018-06-16T20:13:07.169Z,21.85
2018-06-16T20:15:39.218Z,21.80
2018-06-16T20:18:11.878Z,21.71
2018-06-16T20:20:43.499Z,21.62
2018-06-16T20:23:19.146Z,21.54
2018-06-16T20:25:52.111Z,20.09
2018-06-16T20:28:26.131Z,21.37
2018-06-16T20:30:58.123Z,21.29
2018-06-16T20:33:29.718Z,21.17
2018-06-16T20:36:01.819Z,21.06
2018-06-16T20:38:34.201Z,20.91
2018-06-16T20:41:07.492Z,20.77
2018-06-16T20:43:40.176Z,20.65
2018-06-16T20:46:12.750Z,20.58
2018-06-16T20:48:44.623Z,20.56
2018-06-16T20:51:17.225Z,20.55
2018-06-16T20:53:49.183Z,20.48
2018-06-16T20:56:20.600Z,20.40
2018-06-16T20:58:51.925Z,20.28
2018-06-16T21:01:23.699Z,20.21
2018-06-16T21:03:55.886Z,20.21
2018-06-16T21:06:29.818Z,20.14
2018-06-16T21:09:02.385Z,20.06
2018-06-16T21:11:36.423Z,19.97
2018-06-16T21:14:08.320Z,19.94
2018-06-16T21:16:40.165Z,19.96
2018-06-16T21:19:11.391Z,19.95
2018-06-16T21:21:43.042Z,19.88
2018-06-16T21:24:15.169Z,19.81
2018-06-16T21:26:47.291Z,19.76
2018-06-16T21:29:19.049Z,19.74
2018-06-16T21:31:50.391Z,19.72
2018-06-16T21:34:22.588Z,19.65
2018-06-16T21:36:53.983Z,19.60
2018-06-16T21:39:25.349Z,19.56
2018-06-16T21:41:56.930Z,19.52
2018-06-16T21:44:28.505Z,19.48
2018-06-16T21:46:59.903Z,19.43
2018-06-16T21:49:31.579Z,19.40
2018-06-16T21:52:04.370Z,19.39
2018-06-16T21:54:36.675Z,19.36
2018-06-16T21:57:08.064Z,19.35
2018-06-16T21:59:40.255Z,19.33
2018-06-16T22:02:15.008Z,19.29
2018-06-16T22:04:46.975Z,19.25
2018-06-16T22:07:18.500Z,19.22
2018-06-16T22:09:49.810Z,19.18
2018-06-16T22:12:21.592Z,19.16
2018-06-16T22:14:53.913Z,19.15
2018-06-16T22:17:25.551Z,19.13
2018-06-16T22:19:57.492Z,19.15
2018-06-16T22:22:30.872Z,19.18
2018-06-16T22:25:02.449Z,19.22
2018-06-16T22:27:34.092Z,19.25
2018-06-16T22:30:05.687Z,19.29
2018-06-16T22:32:38.000Z,19.31
2018-06-16T22:35:09.546Z,19.30
2018-06-16T22:37:40.950Z,19.31
2018-06-16T22:40:12.853Z,19.30
2018-06-16T22:42:44.623Z,19.30
2018-06-16T22:45:16.038Z,19.28
2018-06-16T22:47:47.715Z,19.26
2018-06-16T22:50:20.788Z,19.23
2018-06-16T22:52:52.044Z,19.20
2018-06-16T22:55:23.636Z,19.20
2018-06-16T22:57:55.580Z,19.17
2018-06-16T23:00:29.207Z,19.14
2018-06-16T23:03:01.143Z,19.12
2018-06-16T23:05:32.569Z,19.12
2018-06-16T23:08:03.768Z,19.14
2018-06-16T23:10:36.142Z,19.15
2018-06-16T23:13:07.927Z,19.13
2018-06-16T23:15:39.164Z,19.11
2018-06-16T23:18:11.863Z,19.06
2018-06-16T23:20:44.676Z,19.02
2018-06-16T23:23:16.482Z,18.96
2018-06-16T23:25:48.740Z,18.91
2018-06-16T23:28:21.317Z,18.89
2018-06-16T23:30:55.218Z,18.84
2018-06-16T23:33:27.336Z,18.79
2018-06-16T23:35:58.683Z,18.70
2018-06-16T23:38:30.188Z,18.64
2018-06-16T23:41:04.174Z,18.60
2018-06-16T23:43:35.991Z,18.57
2018-06-16T23:46:07.816Z,18.58
2018-06-16T23:48:39.563Z,18.56
2018-06-16T23:51:11.468Z,18.54
2018-06-16T23:53:42.632Z,18.50
2018-06-16T23:56:14.153Z,18.48
2018-06-16T23:58:45.988Z,18.43
